GW1707 Weather Reports


Display with metric or nautical units.
time (UTC)temp
F
wind
direction
speed
MPH
gust
MPH
rain 1hr
in
rain 24hr
in
rain mn
in
humidity
%
barometer
mb
20240228223234 59 140 2.0 4.0 0.00 0.00 0.00 95 1018.6
20240228221555 59 93 1.0 4.0 0.00 0.00 0.00 95 1018.4
20240228220107 59 159 2.0 6.0 0.00 0.00 0.00 96 1018.5
20240228214602 59 172 2.0 6.0 0.00 0.00 0.00 96 1018.0
20240228213103 59 226 3.0 6.0 0.00 0.00 0.00 96 1017.8
20240228211556 59 208 4.0 6.0 0.00 0.00 0.00 96 1017.7
20240228210052 59 175 4.0 7.0 0.00 0.00 0.00 97 1017.4
20240228204551 59 164 2.0 6.0 0.00 0.00 0.00 97 1016.9
20240228203051 59 180 2.0 5.0 0.00 0.00 0.00 97 1016.8
20240228201552 59 197 2.0 5.0 0.00 0.00 0.00 97 1016.7
20240228200050 59 206 2.0 5.0 0.00 0.00 0.00 98 1016.6
20240228194551 59 180 2.0 3.0 0.00 0.00 0.00 98 1016.5
20240228193101 59 175 0.0 0.0 0.00 0.00 0.00 98 1016.1
20240228191549 59 0 0.0 4.0 0.00 0.00 0.00 98 1015.9
20240228190052 59 0 0.0 2.0 0.00 0.00 0.00 98 1015.6
20240228184602 58 124 1.0 3.0 0.00 0.00 0.00 98 1015.4
20240228183106 58 0 0.0 3.0 0.00 0.00 0.00 97 1015.5
20240228181612 58 101 1.0 3.0 0.00 0.00 0.00 97 1015.3
20240228180122 58 101 1.0 3.0 0.00 0.00 0.00 98 1015.5
20240228174607 58 101 1.0 3.0 0.00 0.00 0.00 98 1015.2
20240228173115 57 101 0.0 3.0 0.00 0.00 0.00 97 1015.2
20240228171600 57 0 0.0 0.0 0.00 0.00 0.00 97 1014.8
20240228170103 57 0 0.0 0.0 0.00 0.00 0.00 97 1014.9
20240228164559 57 0 0.0 0.0 0.00 0.00 0.00 97 1015.0
20240228163056 56 0 0.0 0.0 0.00 0.00 0.00 97 1015.4
20240228161555 56 0 0.0 0.0 0.00 0.00 0.00 96 1015.2
20240228160116 56 0 0.0 0.0 0.00 0.00 0.00 96 1015.1
20240228154553 56 0 0.0 0.0 0.00 0.00 0.00 96 1015.2
20240228153057 56 0 0.0 0.0 0.00 0.00 0.00 96 1015.1
20240228151603 57 0 0.0 0.0 0.00 0.00 0.00 96 1014.9
20240228150052 57 0 0.0 2.0 0.00 0.00 0.00 96 1015.0
20240228144554 57 101 1.0 4.0 0.00 0.00 0.00 96 1015.1
20240228143056 58 103 0.0 3.0 0.00 0.00 0.00 96 1015.3
20240228141554 58 0 1.0 4.0 0.00 0.00 0.00 95 1015.4
20240228140054 59 104 1.0 3.0 0.00 0.00 0.00 95 1015.5
20240228134551 60 107 1.0 3.0 0.00 0.00 0.00 96 1015.6
20240228133112 60 0 0.0 2.0 0.00 0.00 0.00 95 1015.7
20240228131559 61 0 1.0 3.0 0.00 0.00 0.00 95 1015.8
20240228130053 61 112 0.0 3.0 0.00 0.00 0.00 95 1015.7
20240228124552 61 0 1.0 3.0 0.00 0.00 0.00 95 1015.7
20240228123052 61 156 1.0 3.0 0.00 0.00 0.00 95 1015.7
20240228121557 61 156 1.0 4.0 0.00 0.00 0.00 95 1015.8
20240228120053 61 175 2.0 6.0 0.00 0.00 0.00 95 1015.5
20240228114551 61 131 2.0 8.0 0.00 0.00 0.00 95 1015.6
20240228113054 61 131 3.0 9.0 0.00 0.00 0.00 94 1015.6
20240228111558 61 172 3.0 6.0 0.00 0.00 0.00 94 1015.5
20240228110056 60 168 2.0 8.0 0.00 0.00 0.00 94 1015.5
20240228104600 60 172 3.0 6.0 0.00 0.00 0.00 93 1015.4
20240228103055 60 151 3.0 8.0 0.00 0.00 0.00 92 1015.4
20240228101555 61 180 1.0 5.0 0.00 0.00 0.00 90 1015.2
20240228100058 61 197 4.0 10.0 0.00 0.00 0.00 90 1015.0
20240228094615 62 153 3.0 9.0 0.00 0.00 0.00 89 1014.8
20240228093057 62 166 5.0 9.0 0.00 0.00 0.00 87 1014.5
20240228091553 64 185 5.0 9.0 0.00 0.00 0.00 83 1014.3
20240228090059 64 185 4.0 10.0 0.00 0.00 0.00 81 1014.2
20240228084552 65 180 6.0 11.0 0.00 0.00 0.00 80 1014.1
20240228083110 66 203 5.0 10.0 0.00 0.00 0.00 79 1014.2
20240228081559 67 175 7.0 12.0 0.00 0.00 0.00 78 1014.1
20240228080052 69 162 9.0 14.0 0.00 0.00 0.00 76 1014.0
20240228074551 70 166 7.0 13.0 0.00 0.00 0.00 72 1013.9
20240228073104 70 141 7.0 15.0 0.00 0.00 0.00 72 1013.7
20240228071559 71 147 8.0 14.0 0.00 0.00 0.00 72 1013.6
20240228070052 71 137 8.0 14.0 0.00 0.00 0.00 73 1013.5
20240228064555 71 162 9.0 15.0 0.00 0.00 0.00 72 1013.5
20240228063059 72 180 11.0 19.0 0.00 0.00 0.00 72 1013.4
20240228061555 74 145 11.0 19.0 0.00 0.00 0.00 67 1013.1
20240228060054 75 206 12.0 19.0 0.00 0.00 0.00 67 1012.8
20240228054559 75 169 11.0 20.0 0.00 0.00 0.00 66 1012.6
20240228053106 75 202 13.0 21.0 0.00 0.00 0.00 65 1012.8
20240228051601 75 204 14.0 23.0 0.00 0.00 0.00 64 1012.5
20240228050104 75 185 13.0 24.0 0.00 0.00 0.00 64 1012.3
20240228044607 76 175 12.0 20.0 0.00 0.00 0.00 61 1012.2
20240228043058 76 197 14.0 26.0 0.00 0.00 0.00 61 1012.2
20240228041559 76 199 15.0 22.0 0.00 0.00 0.00 60 1012.3
20240228040107 76 172 13.0 21.0 0.00 0.00 0.00 61 1012.2
20240228034555 75 200 14.0 21.0 0.00 0.00 0.00 63 1012.2
20240228033103 76 212 17.0 25.0 0.00 0.00 0.00 62 1012.2
20240228031559 77 180 15.0 29.0 0.00 0.00 0.00 59 1011.9
20240228030102 77 225 12.0 20.0 0.00 0.00 0.00 60 1011.9
20240228024603 75 195 16.0 23.0 0.00 0.00 0.00 62 1011.8
20240228023107 75 205 13.0 26.0 0.00 0.00 0.00 63 1011.9
20240228021555 74 195 15.0 24.0 0.00 0.00 0.00 68 1011.8
20240228020102 73 211 15.0 28.0 0.00 0.00 0.00 68 1011.8
20240228014553 73 206 14.0 24.0 0.00 0.00 0.00 70 1011.7
20240228013058 73 218 15.0 22.0 0.00 0.00 0.00 71 1012.0
20240228011553 74 210 14.0 26.0 0.00 0.00 0.00 70 1012.0
20240228010058 75 215 12.0 20.0 0.00 0.00 0.00 69 1011.8
20240228004554 75 202 12.0 23.0 0.00 0.00 0.00 70 1011.6
20240228003114 74 220 15.0 23.0 0.00 0.00 0.00 68 1011.4
20240228001554 74 207 17.0 26.0 0.00 0.00 0.00 70 1011.2
20240228000101 73 202 17.0 24.0 0.00 0.00 0.00 68 1011.2
20240227234551 74 207 15.0 21.0 0.00 0.00 0.00 68 1011.2
20240227233054 73 202 11.0 21.0 0.00 0.00 0.00 70 1010.9
20240227231559 72 172 11.0 18.0 0.00 0.00 0.00 72 1011.0
20240227230053 71 223 12.0 21.0 0.00 0.00 0.00 72 1010.9
20240227224602 70 195 13.0 23.0 0.00 0.00 0.00 76 1010.9